This is the latest recevied weather packets stored in our database for station/object KO4T-4. If no packets are shown the sender has not sent any weather packets the latest 10 day(s).
| Time | Temp. | Humidity | Pressure | Rain* | Wind** | Luminosity | Snow |
|---|---|---|---|---|---|---|---|
| 1777998903 | 24.44° C | 39% | 1016.4 hPa | 0 mm | - | - | - |
| 1777998603 | 24.44° C | 40% | 1016.2 hPa | 0 mm | - | - | - |
| 1777998303 | 23.89° C | 42% | 1016.3 hPa | 0 mm | - | - | - |
| 1777998003 | 24.44° C | 39% | 1016.3 hPa | 0 mm | - | - | - |
| 1777997703 | 23.89° C | 41% | 1016.3 hPa | 0 mm | - | - | - |
| 1777997403 | 23.89° C | 40% | 1016.4 hPa | 0 mm | - | - | - |
| 1777997102 | 23.89° C | 40% | 1016.5 hPa | 0 mm | - | - | - |
| 1777996803 | 23.89° C | 40% | 1016.5 hPa | 0 mm | - | - | - |
| 1777996502 | 23.89° C | 41% | 1016.5 hPa | 0 mm | - | - | - |
| 1777996203 | 23.89° C | 40% | 1016.6 hPa | 0 mm | - | - | - |
| 1777995903 | 23.33° C | 40% | 1016.6 hPa | 0 mm | - | - | - |
| 1777995603 | 23.33° C | 42% | 1016.7 hPa | 0 mm | - | - | - |
| 1777995303 | 23.33° C | 42% | 1016.6 hPa | 0 mm | - | - | - |
| 1777995002 | 23.33° C | 44% | 1016.8 hPa | 0 mm | - | - | - |
| 1777994703 | 23.33° C | 40% | 1016.8 hPa | 0 mm | - | - | - |
| 1777994403 | 23.33° C | 44% | 1016.7 hPa | 0 mm | - | - | - |
| 1777994103 | 22.78° C | 44% | 1016.6 hPa | 0 mm | - | - | - |
| 1777993803 | 22.78° C | 44% | 1016.6 hPa | 0 mm | - | - | - |
| 1777993503 | 22.22° C | 48% | 1016.6 hPa | 0 mm | - | - | - |
| 1777993203 | 21.67° C | 52% | 1016.7 hPa | 0 mm | - | - | - |
| 1777992903 | 21.11° C | 55% | 1016.5 hPa | 0 mm | - | - | - |
| 1777992603 | 20.56° C | 56% | 1016.5 hPa | 0 mm | - | - | - |
| 1777992303 | 20.56° C | 58% | 1016.6 hPa | 0 mm | - | - | - |
| 1777992002 | 20° C | 60% | 1016.6 hPa | 0 mm | - | - | - |
| 1777991703 | 20° C | 59% | 1016.7 hPa | 0 mm | - | - | - |
* Rain latest hour (hover to see other rain measurements)
** Current wind speed in m/s (hover to see current wind gust speed)